Time;durP1;ratioP1;P1;durP2;ratioP2;P2;SDS_P1;SDS_P2;PMS_P1;PMS_P2;Temp;Humidity;BMP_temperature;BMP_pressure;BME280_temperature;BME280_humidity;BME280_pressure;Samples;Min_cycle;Max_cycle;Signal;HPM_P1;HPM_P2
2023/10/21 00:02:20;;;;;;;14.68;6.70;;;;;;;22.33;58.21;100102.78;5109668;28;20032;-80
2023/10/21 00:04:45;;;;;;;17.77;6.60;;;;;;;22.37;58.33;100106.81;5111223;28;20030;-80
2023/10/21 00:07:11;;;;;;;16.58;6.40;;;;;;;22.39;58.44;100120.28;5111076;28;20034;-81
2023/10/21 00:09:36;;;;;;;11.55;6.15;;;;;;;22.39;58.56;100126.59;5111065;27;20031;-81
2023/10/21 00:12:02;;;;;;;20.00;6.65;;;;;;;22.36;58.58;100121.56;5111021;28;20032;-81
2023/10/21 00:14:27;;;;;;;17.83;6.93;;;;;;;22.21;58.53;100099.03;5091393;28;20081;-81
2023/10/21 00:16:53;;;;;;;13.68;6.75;;;;;;;22.36;58.71;100121.56;5110799;28;20479;-81
2023/10/21 00:19:19;;;;;;;22.30;6.60;;;;;;;22.33;58.80;100126.59;5110728;28;20106;-81
2023/10/21 00:21:44;;;;;;;14.93;6.45;;;;;;;22.32;58.94;100124.94;5110879;28;20087;-81
2023/10/21 00:24:10;;;;;;;19.67;7.00;;;;;;;22.29;58.91;100123.47;5110543;28;20388;-81
2023/10/21 00:26:49;;;;;;;14.75;6.40;;;;;;;22.14;58.99;100100.91;5110936;28;20178;-82
2023/10/21 00:29:15;;;;;;;20.42;7.63;;;;;;;22.19;59.14;100114.84;5110491;28;20035;-81
2023/10/21 00:31:44;;;;;;;14.13;7.28;;;;;;;22.13;59.33;100110.22;5110606;28;20085;-81
2023/10/21 00:34:10;;;;;;;16.52;7.50;;;;;;;22.01;59.34;100087.25;5110482;28;20035;-82
2023/10/21 00:36:36;;;;;;;20.27;7.00;;;;;;;22.12;59.26;100108.50;5110522;28;20411;-81
2023/10/21 00:39:02;;;;;;;19.98;6.53;;;;;;;22.14;59.36;100112.72;5110493;28;20027;-81
2023/10/21 00:41:28;;;;;;;12.43;6.15;;;;;;;22.01;59.34;100095.47;5110749;28;20023;-82
2023/10/21 00:43:53;;;;;;;14.63;7.43;;;;;;;22.14;59.53;100117.34;5110372;28;20380;-80
2023/10/21 00:46:20;;;;;;;14.90;6.68;;;;;;;22.12;59.44;100114.00;5110414;28;20167;-82
2023/10/21 00:48:49;;;;;;;15.90;7.80;;;;;;;22.01;59.57;100106.44;5110330;28;20451;-79
2023/10/21 00:51:15;;;;;;;19.98;6.93;;;;;;;22.07;59.80;100117.38;5110520;28;20122;-82
2023/10/21 00:53:42;;;;;;;22.48;7.25;;;;;;;22.06;59.97;100117.56;5110390;28;20019;-80
2023/10/21 00:56:08;;;;;;;19.23;7.18;;;;;;;21.93;59.82;100098.41;5109832;28;20509;-80
2023/10/21 00:58:35;;;;;;;19.42;7.53;;;;;;;22.01;60.17;100123.72;5110287;28;20535;-81
2023/10/21 01:01:07;;;;;;;19.25;6.57;;;;;;;21.96;60.24;100115.25;5110052;28;20023;-79
2023/10/21 01:03:34;;;;;;;;;;;;;;;21.95;60.10;100120.97;5110845;28;20035;-80
2023/10/21 01:06:00;;;;;;;25.05;6.75;;;;;;;21.92;60.31;100124.97;5110364;28;19995;-80
2023/10/21 01:08:25;;;;;;;18.45;7.35;;;;;;;21.89;60.31;100121.81;5110554;28;20110;-82
2023/10/21 01:10:51;;;;;;;14.85;7.05;;;;;;;21.89;60.40;100125.38;5110122;28;20069;-80
2023/10/21 01:13:17;;;;;;;25.30;7.53;;;;;;;21.86;60.50;100120.31;5110220;28;20019;-80
2023/10/21 01:15:42;;;;;;;22.45;7.13;;;;;;;21.84;60.52;100127.88;5109870;28;20183;-80
2023/10/21 01:18:08;;;;;;;20.20;7.43;;;;;;;21.90;60.36;100124.31;5110084;28;20461;-81
2023/10/21 01:20:41;;;;;;;21.40;7.45;;;;;;;21.85;60.42;100121.34;5110344;28;20065;-80
2023/10/21 01:23:08;;;;;;;19.30;8.00;;;;;;;21.89;60.46;100130.03;5110154;28;20049;-82
2023/10/21 01:25:34;;;;;;;16.02;8.18;;;;;;;21.77;60.61;100105.13;5110124;28;20030;-80
2023/10/21 01:27:59;;;;;;;15.43;6.75;;;;;;;21.81;60.40;100119.22;5110100;28;20024;-82
2023/10/21 01:30:25;;;;;;;20.25;7.15;;;;;;;21.77;60.46;100109.75;5109832;28;20027;-80
2023/10/21 01:32:51;;;;;;;14.20;6.55;;;;;;;21.81;60.46;100132.91;5110027;28;20034;-81
2023/10/21 01:35:17;;;;;;;14.82;6.50;;;;;;;21.80;60.39;100129.34;5111572;28;20031;-80
2023/10/21 01:37:44;;;;;;;15.85;6.40;;;;;;;21.83;60.47;100120.72;5114048;28;20049;-82
2023/10/21 01:40:10;;;;;;;17.60;7.07;;;;;;;21.83;60.31;100120.72;5113980;28;20072;-80
2023/10/21 01:42:40;;;;;;;17.65;6.78;;;;;;;21.71;60.23;100105.97;5113857;28;20059;-81
2023/10/21 01:45:06;;;;;;;19.73;8.07;;;;;;;21.80;60.44;100120.28;5113906;27;20039;-80
2023/10/21 01:47:32;;;;;;;12.68;6.32;;;;;;;21.75;60.31;100111.84;5113941;28;20027;-82
2023/10/21 01:50:01;;;;;;;17.27;6.28;;;;;;;21.80;60.41;100126.63;5113806;27;20092;-81
2023/10/21 01:52:26;;;;;;;16.83;7.20;;;;;;;21.83;59.97;100120.72;5113813;28;20026;-81
2023/10/21 01:54:55;;;;;;;13.05;6.78;;;;;;;21.78;59.90;100108.69;5113627;28;20411;-81
2023/10/21 01:57:20;;;;;;;19.30;7.10;;;;;;;21.80;60.07;100125.78;5094930;28;20039;-80
2023/10/21 01:59:46;;;;;;;19.13;6.40;;;;;;;21.78;60.22;100127.84;5113380;28;20080;-81
2023/10/21 02:02:12;;;;;;;22.40;7.57;;;;;;;21.82;59.93;100129.13;5113722;28;20073;-79
2023/10/21 02:04:37;;;;;;;19.45;6.70;;;;;;;21.83;59.87;100125.34;5113553;28;20028;-81
2023/10/21 02:07:03;;;;;;;23.08;7.43;;;;;;;21.71;59.80;100106.78;5113618;28;20023;-81
2023/10/21 02:09:28;;;;;;;18.73;6.60;;;;;;;21.77;59.85;100123.44;5113518;28;20050;-81
2023/10/21 02:11:55;;;;;;;22.67;6.55;;;;;;;21.84;59.76;100137.97;5113271;28;20545;-81
2023/10/21 02:14:24;;;;;;;13.73;6.78;;;;;;;21.80;59.83;100137.56;5113130;28;20431;-81
2023/10/21 02:16:50;;;;;;;12.48;6.40;;;;;;;21.84;59.77;100141.56;5113247;28;20384;-81
2023/10/21 02:19:16;;;;;;;15.60;6.88;;;;;;;21.73;59.95;100135.88;5113220;28;20028;-80
2023/10/21 02:21:41;;;;;;;14.55;7.32;;;;;;;21.76;59.96;100136.28;5113483;28;20027;-81
2023/10/21 02:24:07;;;;;;;22.15;7.15;;;;;;;21.79;60.00;100140.50;5113156;28;20024;-81
2023/10/21 02:26:32;;;;;;;13.98;6.38;;;;;;;21.79;59.72;100135.03;5113146;28;20020;-82
2023/10/21 02:28:58;;;;;;;29.48;7.65;;;;;;;21.68;60.00;100134.59;5112945;28;20060;-82
2023/10/21 02:31:23;;;;;;;16.58;7.25;;;;;;;21.76;59.70;100147.25;5113309;28;20087;-80
2023/10/21 02:33:49;;;;;;;12.88;6.75;;;;;;;21.72;59.45;100140.50;5113025;28;20059;-82
2023/10/21 02:36:14;;;;;;;13.00;6.35;;;;;;;21.68;59.27;100136.47;5112941;28;20028;-81
2023/10/21 02:38:40;;;;;;;19.95;7.93;;;;;;;21.79;59.30;100151.44;5112661;28;20027;-81
2023/10/21 02:41:05;;;;;;;22.23;6.60;;;;;;;21.67;59.14;100134.81;5113364;28;20545;-82
2023/10/21 02:43:32;;;;;;;17.23;7.00;;;;;;;21.83;59.11;100141.78;5112498;28;20028;-82
2023/10/21 02:46:09;;;;;;;19.33;6.32;;;;;;;21.86;58.80;100152.31;5112848;28;20598;-81
2023/10/21 02:48:35;;;;;;;14.32;6.35;;;;;;;21.89;58.57;100152.78;5112572;28;20031;-81
2023/10/21 02:51:21;;;;;;;24.23;6.13;;;;;;;21.85;58.30;100150.63;5112634;28;20088;-81
2023/10/21 02:53:46;;;;;;;27.92;6.95;;;;;;;21.85;58.62;100158.81;5111845;28;20045;-82
2023/10/21 02:56:13;;;;;;;24.23;6.93;;;;;;;21.86;58.46;100153.16;5112782;28;20024;-81
2023/10/21 02:58:40;;;;;;;18.10;5.97;;;;;;;21.88;58.63;100161.16;5112340;28;20034;-81
2023/10/21 03:01:17;;;;;;;21.63;7.50;;;;;;;21.73;58.58;100146.81;5112683;28;20038;-80
2023/10/21 03:03:44;;;;;;;25.02;6.75;;;;;;;21.87;58.36;100167.66;5111972;28;20104;-80
2023/10/21 03:06:10;;;;;;;21.67;6.25;;;;;;;21.88;58.40;100172.97;5112176;28;20073;-81
2023/10/21 03:08:36;;;;;;;17.75;6.88;;;;;;;21.70;58.37;100148.06;5111995;28;20046;-80
2023/10/21 03:11:03;;;;;;;15.68;6.72;;;;;;;21.70;58.10;100129.75;5112178;28;20110;-81
2023/10/21 03:13:32;;;;;;;11.95;7.05;;;;;;;21.71;58.19;100138.81;5112170;28;20031;-80
2023/10/21 03:15:58;;;;;;;20.75;6.97;;;;;;;21.75;58.27;100156.50;5112157;28;20068;-82
2023/10/21 03:18:24;;;;;;;20.08;7.88;;;;;;;21.72;58.43;100162.38;5112243;28;20658;-81
2023/10/21 03:20:50;;;;;;;12.82;6.10;;;;;;;21.82;58.35;100172.94;5111858;28;20047;-82
2023/10/21 03:23:17;;;;;;;23.95;6.65;;;;;;;21.81;58.27;100160.28;5111922;28;20110;-81
2023/10/21 03:25:42;;;;;;;21.75;7.40;;;;;;;21.79;58.15;100154.19;5111768;27;20395;-81
2023/10/21 03:28:08;;;;;;;17.77;6.28;;;;;;;21.78;58.10;100156.06;5112197;28;20024;-80
2023/10/21 03:30:34;;;;;;;23.67;6.22;;;;;;;21.81;58.06;100154.81;5111754;28;20118;-81
2023/10/21 03:32:59;;;;;;;14.57;6.95;;;;;;;21.61;58.07;100128.28;5111893;28;20027;-79
2023/10/21 03:35:25;;;;;;;14.70;7.10;;;;;;;21.78;58.08;100167.03;5111564;28;20495;-80
2023/10/21 03:37:50;;;;;;;18.58;7.97;;;;;;;21.70;58.21;100146.19;5112149;28;20023;-80
2023/10/21 03:40:16;;;;;;;11.18;6.57;;;;;;;21.78;58.26;100171.66;5111845;28;20032;-82
2023/10/21 03:42:42;;;;;;;10.40;6.45;;;;;;;21.76;58.46;100168.28;5111410;28;20030;-80
2023/10/21 03:45:07;;;;;;;21.55;6.20;;;;;;;21.59;58.72;100148.66;5111573;28;20399;-80
2023/10/21 03:47:34;;;;;;;30.48;7.22;;;;;;;21.71;58.68;100177.16;5111364;28;20034;-80
2023/10/21 03:49:59;;;;;;;27.42;6.88;;;;;;;21.65;58.87;100167.84;5092029;28;20035;-82
2023/10/21 03:52:25;;;;;;;19.55;6.85;;;;;;;21.49;58.82;100140.88;5111453;28;20560;-81
2023/10/21 03:54:50;;;;;;;27.13;7.45;;;;;;;21.58;58.79;100149.75;5111365;28;20099;-80
2023/10/21 03:57:16;;;;;;;23.30;6.90;;;;;;;21.65;58.70;100164.25;5111062;28;20035;-81
2023/10/21 03:59:41;;;;;;;24.88;6.25;;;;;;;21.58;58.81;100150.59;5113547;28;20110;-82
2023/10/21 04:02:07;;;;;;;22.75;7.38;;;;;;;21.56;58.63;100158.16;5114583;28;20102;-82
2023/10/21 04:04:33;;;;;;;14.85;6.78;;;;;;;21.60;58.89;100153.94;5115467;28;20043;-83
2023/10/21 04:06:59;;;;;;;24.63;7.65;;;;;;;21.60;58.68;100159.44;5113856;28;20464;-83
2023/10/21 04:09:26;;;;;;;13.68;6.95;;;;;;;21.57;58.88;100148.03;5112783;28;20028;-81
2023/10/21 04:11:53;;;;;;;21.95;7.43;;;;;;;21.51;58.71;100148.88;5112024;28;20100;-84
2023/10/21 04:14:18;;;;;;;16.95;6.32;;;;;;;21.36;58.70;100124.44;5110209;28;20090;-82
2023/10/21 04:16:44;;;;;;;15.25;6.45;;;;;;;21.53;58.60;100150.34;5112219;28;20019;-84
2023/10/21 04:19:11;;;;;;;23.77;6.40;;;;;;;21.50;58.53;100142.56;5110221;28;20036;-84
2023/10/21 04:21:36;;;;;;;21.10;6.93;;;;;;;21.53;58.37;100153.09;5110156;28;20028;-83
2023/10/21 04:24:03;;;;;;;18.35;5.85;;;;;;;21.53;58.29;100152.25;5111990;28;20106;-84
2023/10/21 04:26:29;;;;;;;28.92;7.25;;;;;;;21.55;58.03;100150.16;5111276;28;20019;-81
2023/10/21 04:28:55;;;;;;;21.35;6.43;;;;;;;21.54;57.98;100149.31;5111336;28;20081;-83
2023/10/21 04:31:21;;;;;;;18.77;6.30;;;;;;;21.54;57.79;100149.31;5109924;28;20088;-84
2023/10/21 04:33:47;;;;;;;14.40;5.60;;;;;;;21.54;57.65;100146.56;5110418;28;20028;-84
2023/10/21 04:36:17;;;;;;;23.63;6.22;;;;;;;21.54;57.64;100157.53;5110673;28;20068;-78
2023/10/21 04:38:44;;;;;;;23.55;6.68;;;;;;;21.58;57.68;100169.75;5110621;28;20031;-77
2023/10/21 04:41:10;;;;;;;19.65;5.80;;;;;;;21.55;57.72;100161.94;5109963;28;20049;-77
2023/10/21 04:43:36;;;;;;;21.52;6.07;;;;;;;21.60;57.59;100167.63;5109678;28;20039;-78
2023/10/21 04:46:02;;;;;;;17.20;5.75;;;;;;;21.61;57.54;100169.34;5110460;28;20024;-78
2023/10/21 04:48:27;;;;;;;31.80;6.40;;;;;;;21.59;57.41;100179.63;5109971;28;20085;-78
2023/10/21 04:50:53;;;;;;;23.77;6.55;;;;;;;21.66;57.13;100185.97;5110265;28;20053;-77
2023/10/21 04:53:18;;;;;;;18.73;6.38;;;;;;;21.57;57.06;100165.31;5110197;28;20403;-77
2023/10/21 04:55:44;;;;;;;15.55;6.15;;;;;;;21.56;56.99;100169.09;5109572;28;20015;-77
2023/10/21 04:58:09;;;;;;;36.97;7.53;;;;;;;21.68;56.84;100189.34;5090197;28;20566;-78
2023/10/21 05:00:35;;;;;;;18.88;5.43;;;;;;;21.70;56.54;100181.78;5109471;28;20110;-78
2023/10/21 05:03:00;;;;;;;9.90;5.45;;;;;;;21.70;56.42;100187.25;5108325;28;20042;-78
2023/10/21 05:05:26;;;;;;;16.38;5.95;;;;;;;21.76;56.26;100201.16;5109712;28;20043;-77
2023/10/21 05:07:51;;;;;;;33.70;6.70;;;;;;;21.79;56.01;100195.25;5090242;28;20050;-77
2023/10/21 05:10:18;;;;;;;22.35;5.03;;;;;;;21.82;55.77;100197.56;5112066;28;20510;-81
2023/10/21 05:12:43;;;;;;;23.30;6.72;;;;;;;21.88;55.48;100194.00;5115237;28;20407;-79
2023/10/21 05:15:09;;;;;;;25.13;7.00;;;;;;;21.88;55.20;100194.88;5114968;28;20040;-82
2023/10/21 05:17:35;;;;;;;15.23;5.78;;;;;;;21.89;55.21;100201.22;5114110;28;20024;-82
2023/10/21 05:20:01;;;;;;;13.85;5.53;;;;;;;21.96;55.19;100224.81;5114607;28;20035;-81
2023/10/21 05:22:26;;;;;;;13.95;6.10;;;;;;;22.04;55.08;100221.03;5114873;28;20020;-81
2023/10/21 05:24:52;;;;;;;25.02;7.43;;;;;;;21.92;54.97;100196.16;5114158;28;20027;-81
2023/10/21 05:27:17;;;;;;;22.45;6.03;;;;;;;22.09;54.73;100223.97;5114520;28;20053;-81
2023/10/21 05:29:42;;;;;;;15.45;5.22;;;;;;;22.15;54.65;100229.47;5114474;28;20031;-83
2023/10/21 05:32:08;;;;;;;32.00;7.22;;;;;;;22.17;54.62;100231.97;5113962;28;20020;-81
2023/10/21 05:34:33;;;;;;;26.65;5.90;;;;;;;22.03;54.70;100202.91;5114370;28;20352;-81
2023/10/21 05:36:59;;;;;;;27.55;6.22;;;;;;;22.27;54.33;100242.53;5114542;28;20758;-81
2023/10/21 05:39:24;;;;;;;15.50;4.45;;;;;;;22.32;53.90;100243.63;5113696;28;20390;-82
2023/10/21 05:41:50;;;;;;;25.45;6.35;;;;;;;22.14;53.77;100213.22;5113696;28;20031;-81
2023/10/21 05:44:15;;;;;;;17.67;6.30;;;;;;;22.40;53.73;100246.13;5113857;28;20028;-82
2023/10/21 05:46:41;;;;;;;32.25;6.13;;;;;;;22.45;53.74;100253.72;5114057;28;20031;-82
2023/10/21 05:49:06;;;;;;;22.02;6.68;;;;;;;22.42;53.60;100233.06;5112916;28;20043;-83
2023/10/21 05:51:31;;;;;;;33.45;7.10;;;;;;;22.57;53.23;100260.25;5115100;28;20023;-82
2023/10/21 05:53:57;;;;;;;18.35;6.20;;;;;;;22.54;53.45;100252.44;5114354;28;20028;-82
2023/10/21 05:56:23;;;;;;;21.00;5.45;;;;;;;22.66;52.99;100268.06;5114840;28;20058;-83
2023/10/21 05:58:49;;;;;;;21.02;5.93;;;;;;;22.64;52.49;100256.47;5114360;28;20117;-82
2023/10/21 06:01:16;;;;;;;28.58;5.88;;;;;;;22.53;52.40;100226.97;5113885;28;20019;-84
2023/10/21 06:03:41;;;;;;;35.75;7.15;;;;;;;22.84;52.39;100266.59;5113160;28;20031;-84
2023/10/21 06:06:07;;;;;;;36.00;6.88;;;;;;;22.81;52.13;100259.66;5113400;28;20398;-81
2023/10/21 06:08:33;;;;;;;39.28;7.13;;;;;;;22.87;51.94;100261.53;5113163;28;20483;-82
2023/10/21 06:10:59;;;;;;;29.83;7.43;;;;;;;22.93;52.10;100260.69;5113454;28;20031;-82
2023/10/21 06:13:24;;;;;;;38.13;7.53;;;;;;;23.00;51.65;100269.72;5113881;28;20039;-83
2023/10/21 06:15:51;;;;;;;33.60;7.05;;;;;;;23.06;51.95;100270.75;5113296;28;20176;-82
2023/10/21 06:18:17;;;;;;;41.80;7.25;;;;;;;23.12;51.57;100270.75;5114081;28;20066;-83
2023/10/21 06:20:48;;;;;;;35.63;7.05;;;;;;;23.07;51.41;100254.09;5114804;28;20059;-82
2023/10/21 06:23:14;;;;;;;20.85;6.68;;;;;;;23.20;51.50;100267.78;5113474;28;20028;-83
2023/10/21 06:25:39;;;;;;;32.42;6.70;;;;;;;23.19;50.98;100270.75;5113428;28;20079;-82
2023/10/21 06:28:05;;;;;;;40.40;7.07;;;;;;;23.26;51.02;100266.09;5113225;28;20443;-82
2023/10/21 06:30:30;;;;;;;29.48;6.40;;;;;;;23.29;50.92;100260.16;5112009;28;20027;-84
2023/10/21 06:32:57;;;;;;;28.80;6.32;;;;;;;23.37;50.49;100270.03;5113617;28;20024;-83
2023/10/21 06:35:22;;;;;;;26.05;6.57;;;;;;;23.42;50.47;100268.41;5113405;28;20410;-80
2023/10/21 06:37:49;;;;;;;22.40;6.78;;;;;;;23.41;50.13;100263.94;5113352;28;20020;-79
2023/10/21 06:40:15;;;;;;;29.27;6.10;;;;;;;23.48;50.12;100266.69;5113369;28;20553;-81
2023/10/21 06:42:40;;;;;;;22.20;6.72;;;;;;;23.55;50.32;100271.06;5111463;28;20111;-81
2023/10/21 06:45:06;;;;;;;30.08;8.25;;;;;;;23.55;49.86;100270.22;5112597;28;20034;-80
2023/10/21 06:47:33;;;;;;;19.88;5.85;;;;;;;23.62;50.06;100274.63;5113238;28;20031;-81
2023/10/21 06:49:59;;;;;;;37.50;6.22;;;;;;;23.68;49.61;100264.69;5113181;28;20039;-81
2023/10/21 06:52:25;;;;;;;20.92;6.40;;;;;;;23.67;49.09;100257.47;5112880;28;20024;-79
2023/10/21 06:54:51;;;;;;;31.25;7.00;;;;;;;23.73;48.99;100273.94;5113033;28;20027;-78
2023/10/21 06:57:20;;;;;;;28.38;6.95;;;;;;;23.77;49.33;100275.19;5112749;28;20051;-80
2023/10/21 06:59:46;;;;;;;32.70;8.30;;;;;;;23.70;49.33;100255.16;5112598;28;20106;-80
2023/10/21 07:02:12;;;;;;;24.35;6.88;;;;;;;23.87;49.03;100284.88;5113111;28;20024;-80
2023/10/21 07:04:37;;;;;;;26.50;7.88;;;;;;;23.88;49.08;100259.09;5112527;28;20043;-80
2023/10/21 07:07:03;;;;;;;29.40;8.65;;;;;;;23.99;48.99;100280.34;5112734;28;20063;-80
2023/10/21 07:09:30;;;;;;;27.77;10.00;;;;;;;23.96;48.80;100276.16;5112508;28;20042;-81
2023/10/21 07:11:55;;;;;;;27.23;5.47;;;;;;;23.94;48.73;100263.72;5093492;28;20040;-80
2023/10/21 07:14:21;;;;;;;33.65;6.13;;;;;;;23.99;48.44;100263.88;5112229;28;20147;-80
2023/10/21 07:16:47;;;;;;;26.00;5.70;;;;;;;24.18;48.31;100287.69;5112294;28;20027;-83
2023/10/21 07:19:12;;;;;;;24.90;5.43;;;;;;;24.21;48.15;100277.09;5112427;28;20047;-81
2023/10/21 07:21:38;;;;;;;25.60;6.35;;;;;;;24.13;48.01;100263.59;5111527;28;20516;-82
2023/10/21 07:24:03;;;;;;;31.17;6.32;;;;;;;24.33;48.08;100291.81;5110023;28;20039;-79
2023/10/21 07:26:29;;;;;;;21.45;6.18;;;;;;;24.25;47.91;100255.47;5112103;28;20022;-83
2023/10/21 07:28:54;;;;;;;15.90;5.45;;;;;;;24.37;47.68;100261.97;5112148;27;20100;-80
2023/10/21 07:31:20;;;;;;;22.80;6.25;;;;;;;24.40;47.32;100268.91;5112032;28;20037;-81
2023/10/21 07:33:45;;;;;;;29.27;5.72;;;;;;;24.59;47.14;100289.91;5111067;28;20151;-79
2023/10/21 07:36:11;;;;;;;23.58;5.50;;;;;;;24.68;46.64;100277.53;5111714;28;20421;-81
2023/10/21 07:38:36;;;;;;;30.77;6.78;;;;;;;24.68;46.93;100278.41;5112286;28;20024;-81
2023/10/21 07:41:12;;;;;;;16.42;6.30;;;;;;;24.78;46.57;100284.25;5111759;28;20603;-80
2023/10/21 07:43:37;;;;;;;19.33;6.47;;;;;;;24.88;46.38;100284.59;5111638;28;20042;-81
2023/10/21 07:46:03;;;;;;;17.85;5.55;;;;;;;24.99;46.41;100295.91;5112100;28;20391;-81
2023/10/21 07:48:29;;;;;;;47.88;8.15;;;;;;;25.06;45.77;100274.69;5111905;28;20032;-80
2023/10/21 07:50:55;;;;;;;18.17;5.28;;;;;;;25.02;45.38;100267.94;5112565;28;20043;-80
2023/10/21 07:53:21;;;;;;;22.27;6.60;;;;;;;25.22;45.06;100282.34;5111477;28;20039;-80
2023/10/21 07:55:49;;;;;;;16.63;5.53;;;;;;;25.31;44.88;100281.00;5111966;28;20028;-81
2023/10/21 07:58:15;;;;;;;22.60;5.95;;;;;;;25.36;44.61;100272.88;5111763;28;20118;-80
2023/10/21 08:00:41;;;;;;;24.60;5.53;;;;;;;25.55;43.76;100280.09;5111658;28;20024;-83
2023/10/21 08:03:07;;;;;;;30.38;7.25;;;;;;;25.62;43.68;100291.88;5112048;28;20089;-82
2023/10/21 08:05:32;;;;;;;21.27;6.53;;;;;;;25.70;43.87;100288.81;5111871;28;20027;-81
2023/10/21 08:07:58;;;;;;;26.98;6.93;;;;;;;25.66;43.34;100265.53;5111529;28;20034;-82
2023/10/21 08:10:24;;;;;;;15.48;5.65;;;;;;;25.87;42.93;100286.25;5111397;28;20428;-82
2023/10/21 08:12:49;;;;;;;30.73;7.25;;;;;;;25.94;42.78;100285.09;5111975;28;20039;-80
2023/10/21 08:15:15;;;;;;;22.00;4.57;;;;;;;26.13;41.93;100296.06;5110990;28;20086;-83
2023/10/21 08:17:40;;;;;;;15.93;4.50;;;;;;;26.19;41.64;100290.50;5110445;28;20035;-82
2023/10/21 08:20:07;;;;;;;26.45;7.93;;;;;;;26.36;41.25;100293.44;5111520;28;20023;-80
2023/10/21 08:22:34;;;;;;;19.52;5.38;;;;;;;26.49;41.32;100287.69;5111266;28;20044;-81
2023/10/21 08:25:00;;;;;;;19.33;4.85;;;;;;;26.62;40.51;100286.63;5111224;28;20517;-81
2023/10/21 08:27:27;;;;;;;26.65;7.65;;;;;;;26.69;40.17;100282.69;5111712;28;20114;-82
2023/10/21 08:29:55;;;;;;;28.25;4.55;;;;;;;26.82;39.79;100288.00;5111979;28;20049;-82
2023/10/21 08:32:20;;;;;;;21.95;5.85;;;;;;;26.90;39.76;100284.91;5111456;28;20028;-84
2023/10/21 08:34:46;;;;;;;27.15;6.00;;;;;;;27.02;39.54;100288.50;5111326;28;20030;-82
2023/10/21 08:37:11;;;;;;;27.92;5.90;;;;;;;27.19;38.99;100301.56;5111095;28;20035;-81
2023/10/21 08:39:37;;;;;;;30.38;5.72;;;;;;;27.25;38.79;100292.31;5111466;28;20436;-81
2023/10/21 08:42:03;;;;;;;29.50;5.70;;;;;;;27.39;38.63;100299.28;5111211;28;20051;-82
2023/10/21 08:44:32;;;;;;;39.70;5.65;;;;;;;27.52;37.84;100299.06;5110738;28;20031;-81
2023/10/21 08:46:59;;;;;;;22.80;6.05;;;;;;;27.63;37.70;100291.81;5111177;28;20123;-83
2023/10/21 08:49:24;;;;;;;20.67;4.93;;;;;;;27.68;37.51;100291.91;5110961;28;20072;-82
2023/10/21 08:51:52;;;;;;;20.92;5.90;;;;;;;27.80;36.70;100295.47;5110613;28;20090;-81
2023/10/21 08:54:19;;;;;;;45.60;6.38;;;;;;;27.93;36.21;100298.81;5110493;28;20080;-82
2023/10/21 08:56:45;;;;;;;17.63;6.03;;;;;;;28.04;36.01;100309.00;5110911;28;20035;-81
2023/10/21 08:59:10;;;;;;;11.48;4.20;;;;;;;28.11;35.70;100292.25;5110322;28;20050;-81
2023/10/21 09:01:36;;;;;;;23.67;5.38;;;;;;;28.08;35.27;100277.00;5110641;28;20024;-81
2023/10/21 09:04:03;;;;;;;16.85;5.28;;;;;;;28.27;35.32;100290.63;5109234;28;20035;-83
2023/10/21 09:06:29;;;;;;;18.20;5.57;;;;;;;28.43;35.63;100289.81;5110774;28;20106;-82
2023/10/21 09:08:55;;;;;;;16.40;4.95;;;;;;;28.54;35.83;100294.44;5110390;28;20509;-82
2023/10/21 09:11:26;;;;;;;23.52;5.60;;;;;;;28.60;35.43;100285.97;5110067;28;20062;-82
2023/10/21 09:13:52;;;;;;;24.15;5.20;;;;;;;28.70;34.86;100287.28;5110200;28;20031;-84
2023/10/21 09:16:27;;;;;;;17.60;5.65;;;;;;;28.82;35.08;100285.25;5110475;28;20058;-81
2023/10/21 09:19:03;;;;;;;25.35;6.07;;;;;;;28.80;34.98;100260.59;5092546;28;20044;-82
2023/10/21 09:21:37;;;;;;;20.70;5.75;;;;;;;29.02;34.75;100289.16;5110384;28;20032;-81
2023/10/21 09:24:11;;;;;;;13.50;5.07;;;;;;;29.11;34.05;100287.66;5110428;28;20103;-81
2023/10/21 09:26:41;;;;;;;30.83;6.47;;;;;;;29.18;33.85;100273.63;5110624;28;20027;-82
2023/10/21 09:29:14;;;;;;;21.63;7.25;;;;;;;29.14;33.82;100250.31;5110345;28;20024;-84
2023/10/21 09:31:53;;;;;;;20.10;5.82;;;;;;;29.41;33.38;100275.38;5110444;28;20038;-84
2023/10/21 09:34:26;;;;;;;36.60;8.85;;;;;;;29.47;33.64;100274.34;5110090;28;20028;-83
2023/10/21 09:36:56;;;;;;;22.02;4.45;;;;;;;29.53;33.62;100268.63;5110348;28;20024;-81
2023/10/21 09:39:23;;;;;;;31.23;6.15;;;;;;;29.64;32.99;100277.88;5110459;28;20110;-81
2023/10/21 09:41:49;;;;;;;23.85;4.65;;;;;;;29.65;32.57;100272.09;5109875;28;20030;-79
2023/10/21 09:44:15;;;;;;;28.38;5.55;;;;;;;29.59;32.39;100244.56;5107787;28;20043;-81
2023/10/21 09:46:45;;;;;;;25.67;4.93;;;;;;;29.73;32.34;100256.09;5110308;28;20023;-83
2023/10/21 09:49:15;;;;;;;24.10;5.95;;;;;;;29.93;32.57;100268.31;5110443;28;20498;-83
2023/10/21 09:51:52;;;;;;;25.40;5.60;;;;;;;29.98;32.29;100267.50;5114386;28;20034;-82
2023/10/21 09:54:26;;;;;;;24.23;6.35;;;;;;;30.09;32.55;100264.56;5112869;28;20026;-81
2023/10/21 09:56:53;;;;;;;24.02;6.40;;;;;;;30.01;31.94;100240.09;5113096;28;20494;-82
2023/10/21 09:59:21;;;;;;;24.13;5.90;;;;;;;30.21;31.78;100258.91;5113894;28;20051;-83
2023/10/21 10:01:47;;;;;;;16.55;4.88;;;;;;;30.26;31.25;100266.41;5116519;28;20124;-81
2023/10/21 10:04:14;;;;;;;23.42;5.75;;;;;;;30.27;31.36;100251.44;5120012;28;20041;-81
2023/10/21 10:06:40;;;;;;;17.77;5.10;;;;;;;30.45;31.21;100259.41;5099820;28;20100;-81
2023/10/21 10:09:07;;;;;;;23.73;4.65;;;;;;;30.51;30.46;100247.25;5119119;28;20427;-82
2023/10/21 10:11:36;;;;;;;26.65;5.35;;;;;;;30.68;30.26;100251.56;5119172;28;20072;-81
2023/10/21 10:14:02;;;;;;;20.38;6.20;;;;;;;30.73;29.54;100245.22;5118068;28;20059;-81
2023/10/21 10:16:29;;;;;;;32.30;5.60;;;;;;;30.74;29.38;100230.22;5114833;28;20038;-81
2023/10/21 10:18:57;;;;;;;28.25;4.60;;;;;;;30.84;29.20;100226.69;5115884;28;20020;-81
2023/10/21 10:21:23;;;;;;;27.35;5.03;;;;;;;31.04;29.43;100246.31;5114656;28;20407;-81
2023/10/21 10:23:57;;;;;;;14.68;4.40;;;;;;;31.13;28.90;100250.25;5113022;28;20102;-81
2023/10/21 10:26:36;;;;;;;23.13;5.25;;;;;;;31.07;28.59;100216.03;5112875;28;20028;-81
2023/10/21 10:29:21;;;;;;;24.40;5.57;;;;;;;31.27;28.00;100230.03;5113140;28;20023;-81
2023/10/21 10:31:47;;;;;;;32.17;6.65;;;;;;;31.38;27.96;100241.19;5111530;28;20521;-80
2023/10/21 10:34:16;;;;;;;23.00;6.88;;;;;;;31.41;28.11;100224.81;5112755;28;20098;-82
2023/10/21 10:36:41;;;;;;;19.88;4.18;;;;;;;31.54;27.44;100241.03;5112977;28;20065;-80
2023/10/21 10:39:07;;;;;;;35.67;5.65;;;;;;;31.61;27.42;100238.00;5113688;28;20485;-81
2023/10/21 10:41:48;;;;;;;21.25;5.32;;;;;;;31.60;27.65;100216.84;5112559;28;20028;-81
2023/10/21 10:44:15;;;;;;;18.10;4.88;;;;;;;31.70;26.78;100216.91;5111264;28;20531;-82
2023/10/21 10:46:41;;;;;;;24.23;4.40;;;;;;;31.85;26.66;100230.00;5112241;28;20381;-82
2023/10/21 10:49:08;;;;;;;16.63;4.45;;;;;;;31.80;26.57;100211.38;5112770;28;20035;-81
2023/10/21 10:51:43;;;;;;;30.75;7.75;;;;;;;32.03;26.69;100233.16;5112557;28;20031;-81
2023/10/21 10:54:15;;;;;;;22.27;5.05;;;;;;;32.07;26.36;100228.72;5112483;28;20024;-82
2023/10/21 10:56:50;;;;;;;21.63;5.15;;;;;;;32.20;25.98;100235.69;5112438;28;20027;-81
2023/10/21 10:59:18;;;;;;;26.40;5.35;;;;;;;32.25;26.58;100235.69;5112762;28;20059;-81
2023/10/21 11:01:45;;;;;;;25.55;5.95;;;;;;;32.25;26.47;100219.84;5112289;28;20051;-81
2023/10/21 11:04:10;;;;;;;20.98;5.60;;;;;;;32.42;26.30;100224.28;5112354;28;20138;-82
2023/10/21 11:06:43;;;;;;;16.52;5.00;;;;;;;32.38;26.19;100207.31;5112329;28;20035;-82
2023/10/21 11:09:16;;;;;;;24.27;5.32;;;;;;;32.60;25.78;100221.00;5092803;28;20043;-82
2023/10/21 11:11:51;;;;;;;14.43;4.88;;;;;;;32.66;25.55;100225.44;5111875;27;20092;-81
2023/10/21 11:14:18;;;;;;;26.33;5.07;;;;;;;32.73;25.68;100220.41;5112127;28;20491;-81
2023/10/21 11:16:44;;;;;;;25.55;5.28;;;;;;;32.82;25.27;100219.56;5112105;28;20028;-81